Time;durP1;ratioP1;P1;durP2;ratioP2;P2;SDS_P1;SDS_P2;PMS_P1;PMS_P2;Temp;Humidity;BMP_temperature;BMP_pressure;BME280_temperature;BME280_humidity;BME280_pressure;Samples;Min_cycle;Max_cycle;Signal;HPM_P1;HPM_P2
2023/09/02 00:00:45;;;;;;;2.35;1.83;;;16.80;99.30;;;15.58;91.54;100404.28;10314996;28;96622;-90
2023/09/02 00:05:49;;;;;;;2.67;1.88;;;16.70;99.60;;;15.53;92.23;100405.72;10322261;28;97015;-91
2023/09/02 00:10:53;;;;;;;2.10;1.83;;;16.70;99.90;;;15.49;92.90;100412.47;10324759;28;96616;-90
2023/09/02 00:15:56;;;;;;;2.63;1.75;;;16.60;99.90;;;15.40;93.34;100410.13;10298253;28;96674;-91
2023/09/02 00:21:00;;;;;;;3.10;2.10;;;16.60;99.90;;;15.40;93.82;100420.84;10279147;28;98264;-91
2023/09/02 00:26:04;;;;;;;3.03;2.10;;;16.50;99.90;;;15.37;94.43;100410.53;10302791;28;97870;-90
2023/09/02 00:31:07;;;;;;;3.55;2.35;;;16.50;99.90;;;15.31;95.04;100403.28;10312751;28;97052;-90
2023/09/02 00:36:11;;;;;;;2.42;2.00;;;16.50;99.90;;;15.40;95.64;100402.09;10315297;28;96705;-90
2023/09/02 00:41:38;;;;;;;3.03;1.98;;;16.60;99.90;;;15.48;95.59;100405.47;10301139;28;96562;-90
2023/09/02 00:46:43;;;;;;;2.65;2.13;;;16.70;99.90;;;15.51;96.44;100399.72;10299931;28;97440;-90
2023/09/02 00:51:47;;;;;;;3.40;2.40;;;16.70;99.90;;;15.55;96.49;100397.47;10293058;28;96668;-90
2023/09/02 00:56:51;;;;;;;4.35;2.00;;;16.80;99.90;;;15.61;96.63;100401.22;10310998;28;96721;-91
2023/09/02 01:01:58;;;;;;;2.50;2.10;;;16.80;99.90;;;15.62;97.05;100409.09;10284446;28;96655;-90
2023/09/02 01:07:03;;;;;;;2.45;1.65;;;16.80;99.90;;;15.63;96.95;100402.72;10299182;28;96682;-90
2023/09/02 01:12:07;;;;;;;4.78;2.20;;;16.80;99.90;;;15.57;97.26;100400.78;10317630;28;96986;-90
2023/09/02 01:17:11;;;;;;;2.67;1.70;;;16.80;99.90;;;15.56;97.58;100401.81;10313695;28;97317;-90
2023/09/02 01:22:58;;;;;;;2.40;2.00;;;16.80;99.90;;;15.63;97.58;100420.63;10281453;28;97507;-89
2023/09/02 01:28:14;;;;;;;2.45;1.83;;;16.80;99.90;;;15.59;97.59;100412.13;10220463;28;96742;-90
2023/09/02 01:33:21;;;;;;;2.97;1.92;;;16.80;99.90;;;15.57;97.69;100416.03;10329328;28;97402;-90
2023/09/02 01:38:27;;;;;;;3.72;2.35;;;16.70;99.90;;;15.53;97.69;100408.41;10314264;28;96565;-90
2023/09/02 01:43:32;;;;;;;3.03;2.40;;;16.70;99.90;;;15.48;97.92;100416.19;10309415;28;97980;-90
2023/09/02 01:48:39;;;;;;;3.35;2.75;;;16.70;99.90;;;15.51;97.83;100415.78;10311628;28;96794;-90
2023/09/02 01:53:43;;;;;;;3.55;2.03;;;16.70;99.90;;;15.47;98.00;100421.72;10297974;28;96732;-90
2023/09/02 01:58:49;;;;;;;5.03;2.50;;;16.70;99.90;;;15.47;98.98;100416.34;10316564;28;96666;-90
2023/09/02 02:04:25;;;;;;;2.60;2.13;;;16.70;99.90;;;15.45;99.09;100426.44;10284935;28;98451;-90
2023/09/02 02:09:39;;;;;;;3.03;2.47;;;16.70;99.90;;;15.39;98.86;100422.69;10304570;28;98353;-91
2023/09/02 02:14:44;;;;;;;2.70;2.30;;;16.60;99.90;;;15.31;99.48;100422.00;10296560;28;97122;-90
2023/09/02 02:19:49;;;;;;;3.50;2.72;;;16.50;99.90;;;15.20;100.00;100408.13;10319408;28;98781;-90
2023/09/02 02:24:52;;;;;;;2.55;2.00;;;16.40;99.90;;;15.24;100.00;100414.75;10315252;28;98458;-90
2023/09/02 02:29:57;;;;;;;4.97;2.38;;;16.50;99.90;;;15.24;100.00;100425.47;10314340;28;96544;-90
2023/09/02 02:35:01;;;;;;;2.55;2.05;;;16.40;99.90;;;15.20;100.00;100426.03;10297931;28;97308;-89
2023/09/02 02:40:05;;;;;;;2.92;2.33;;;16.40;99.90;;;15.18;100.00;100431.59;10313687;28;96762;-90
2023/09/02 02:45:09;;;;;;;3.10;2.35;;;16.40;99.90;;;15.14;100.00;100424.13;10298527;28;96666;-90
2023/09/02 02:50:13;;;;;;;2.85;2.30;;;16.30;99.90;;;15.12;100.00;100429.69;10308492;28;96640;-90
2023/09/02 02:55:17;;;;;;;3.55;2.20;;;16.30;99.90;;;15.03;100.00;100417.44;10296358;28;96770;-90
2023/09/02 03:00:21;;;;;;;3.35;2.85;;;16.30;99.90;;;14.97;100.00;100411.00;10297469;28;97830;-90
2023/09/02 03:05:25;;;;;;;3.88;3.08;;;16.30;99.90;;;15.02;100.00;100421.13;10278235;28;97656;-89
2023/09/02 03:10:28;;;;;;;3.50;2.60;;;16.20;99.90;;;15.04;100.00;100421.75;10285440;28;96664;-90
2023/09/02 03:15:32;;;;;;;3.22;2.70;;;16.20;99.90;;;14.97;100.00;100419.03;10288042;28;97590;-90
2023/09/02 03:20:36;;;;;;;3.40;2.88;;;16.20;99.90;;;14.94;100.00;100422.09;10312001;28;96756;-90
2023/09/02 03:25:40;;;;;;;6.00;3.08;;;16.10;99.90;;;14.86;100.00;100418.69;10304409;28;97877;-90
2023/09/02 03:30:46;;;;;;;4.15;2.63;;;16.10;99.90;;;14.91;100.00;100424.31;10308883;28;98066;-90
2023/09/02 03:35:50;;;;;;;9.07;6.72;;;16.10;99.90;;;14.88;100.00;100427.38;10268285;28;97901;-90
2023/09/02 03:40:53;;;;;;;3.70;3.17;;;16.10;99.90;;;14.85;100.00;100425.06;10295477;28;96605;-90
2023/09/02 03:45:57;;;;;;;3.33;2.95;;;16.10;99.90;;;14.83;100.00;100424.44;10310505;28;96616;-90
2023/09/02 03:51:12;;;;;;;4.05;3.08;;;16.10;99.90;;;14.87;100.00;100420.34;10271271;28;96707;-90
2023/09/02 03:56:18;;;;;;;3.42;2.90;;;16.10;99.90;;;14.90;100.00;100422.66;10302323;28;96673;-90
2023/09/02 04:01:22;;;;;;;3.72;3.22;;;16.10;99.90;;;14.93;100.00;100432.97;10303334;28;97549;-90
2023/09/02 04:06:26;;;;;;;6.63;3.17;;;16.10;99.90;;;14.93;100.00;100435.63;10315394;28;98491;-90
2023/09/02 04:11:32;;;;;;;6.22;3.28;;;16.20;99.90;;;14.94;100.00;100438.16;10295888;28;96797;-90
2023/09/02 04:16:35;;;;;;;4.40;3.10;;;16.10;99.90;;;14.92;100.00;100442.84;10292982;28;96703;-90
2023/09/02 04:21:39;;;;;;;5.40;3.20;;;16.10;99.90;;;14.94;100.00;100442.69;10301080;28;99143;-90
2023/09/02 04:26:43;;;;;;;4.63;3.08;;;16.20;99.90;;;14.91;100.00;100445.72;10300432;28;98796;-90
2023/09/02 04:31:46;;;;;;;4.72;2.80;;;16.20;99.90;;;15.00;100.00;100452.63;10298057;28;97931;-89
2023/09/02 04:36:50;;;;;;;4.13;3.03;;;16.20;99.90;;;14.97;100.00;100442.28;10321895;28;99503;-90
2023/09/02 04:41:54;;;;;;;3.60;2.80;;;16.20;99.90;;;14.92;100.00;100439.34;10299522;28;96974;-89
2023/09/02 04:46:57;;;;;;;5.00;3.30;;;16.20;99.90;;;14.97;100.00;100443.09;10326157;28;96633;-89
2023/09/02 04:52:03;;;;;;;4.47;3.00;;;16.30;99.90;;;15.01;100.00;100443.56;10298483;28;98503;-89
2023/09/02 04:57:07;;;;;;;5.40;2.78;;;16.30;99.90;;;15.13;100.00;100454.59;10309478;28;98769;-89
2023/09/02 05:02:10;;;;;;;6.28;3.10;;;16.30;99.90;;;15.12;100.00;100456.44;10293508;28;98733;-89
2023/09/02 05:07:16;;;;;;;4.53;2.92;;;16.30;99.90;;;15.24;100.00;100465.63;10290516;28;96638;-89
2023/09/02 05:12:20;;;;;;;4.80;3.00;;;16.40;99.90;;;15.36;100.00;100457.91;10296025;28;97382;-90
2023/09/02 05:17:23;;;;;;;4.55;3.33;;;16.50;99.90;;;15.52;100.00;100459.44;10331766;28;96895;-89
2023/09/02 05:22:28;;;;;;;3.97;3.00;;;16.70;99.90;;;15.69;100.00;100458.19;10306820;28;96825;-90
2023/09/02 05:27:32;;;;;;;3.47;2.53;;;16.80;99.90;;;15.81;100.00;100449.59;10311375;28;97936;-89
2023/09/02 05:32:36;;;;;;;3.33;2.78;;;17.00;99.90;;;15.94;100.00;100452.38;10321688;28;96710;-89
2023/09/02 05:37:39;;;;;;;4.85;2.80;;;17.20;99.90;;;16.17;100.00;100462.81;10311243;28;97280;-88
2023/09/02 05:42:43;;;;;;;3.92;2.90;;;17.30;99.90;;;16.29;100.00;100454.00;10335956;28;97679;-90
2023/09/02 05:47:46;;;;;;;3.30;2.88;;;17.50;99.90;;;16.45;100.00;100455.53;10320636;28;96631;-90
2023/09/02 05:52:50;;;;;;;3.65;3.10;;;17.70;99.90;;;16.67;100.00;100466.13;10299802;28;96847;-89
2023/09/02 05:57:54;;;;;;;2.58;2.35;;;17.80;99.90;;;16.84;100.00;100457.56;10317534;28;97046;-90
2023/09/02 06:02:58;;;;;;;3.08;2.50;;;18.00;99.90;;;17.00;100.00;100452.84;10297762;28;96629;-89
2023/09/02 06:08:02;;;;;;;3.42;2.42;;;18.20;99.90;;;17.23;100.00;100457.84;10292750;28;96848;-90
2023/09/02 06:13:05;;;;;;;3.40;2.70;;;18.40;99.90;;;17.51;100.00;100460.31;10313867;28;98614;-89
2023/09/02 06:18:09;;;;;;;3.58;2.65;;;18.70;99.90;;;17.85;100.00;100468.19;10307932;28;96728;-90
2023/09/02 06:23:13;;;;;;;6.63;2.80;;;19.00;99.90;;;18.12;100.00;100463.63;10299667;28;96604;-90
2023/09/02 06:28:16;;;;;;;2.85;2.10;;;19.30;99.90;;;18.37;99.27;100466.44;10290489;28;96880;-90
2023/09/02 06:33:23;;;;;;;4.40;2.33;;;19.50;99.90;;;18.70;98.50;100476.25;10312103;28;97496;-90
2023/09/02 06:38:27;;;;;;;4.28;2.20;;;19.90;99.90;;;18.87;95.15;100476.59;10273359;28;97493;-91
2023/09/02 06:43:30;;;;;;;3.42;2.50;;;20.00;99.90;;;19.07;94.70;100471.94;10289934;28;97031;-91
2023/09/02 06:48:34;;;;;;;2.70;2.20;;;20.20;99.90;;;19.13;92.82;100456.75;10291264;28;98165;-91
2023/09/02 06:53:38;;;;;;;4.30;2.75;;;20.40;99.90;;;19.31;91.95;100467.63;10276500;28;98699;-90
2023/09/02 06:58:43;;;;;;;5.07;2.67;;;20.50;99.90;;;19.39;90.95;100470.03;10312494;28;96729;-90
2023/09/02 07:03:51;;;;;;;6.40;2.75;;;20.60;99.90;;;19.44;90.89;100481.00;10306534;28;97437;-90
2023/09/02 07:08:55;;;;;;;6.65;3.03;;;20.70;99.90;;;19.54;90.21;100477.78;10300686;28;98539;-89
2023/09/02 07:14:02;;;;;;;3.67;2.40;;;20.80;99.90;;;19.70;90.00;100485.38;10294551;28;97446;-88
2023/09/02 07:19:06;;;;;;;5.07;2.80;;;20.90;99.90;;;19.83;89.61;100486.28;10300858;28;96588;-88
2023/09/02 07:24:09;;;;;;;6.18;2.75;;;21.10;99.90;;;20.03;89.18;100484.22;10321989;28;96535;-88
2023/09/02 07:29:13;;;;;;;5.95;2.38;;;21.30;99.90;;;20.17;87.75;100482.22;10288258;28;97048;-89
2023/09/02 07:34:19;;;;;;;3.95;2.50;;;21.40;99.90;;;20.41;87.48;100486.72;10291040;28;97783;-89
2023/09/02 07:39:23;;;;;;;3.13;2.80;;;21.60;99.90;;;20.57;84.67;100480.75;10302883;28;96650;-89
2023/09/02 07:44:26;;;;;;;3.47;2.63;;;21.90;99.90;;;20.85;84.09;100479.34;10287774;28;97095;-89
2023/09/02 07:49:30;;;;;;;3.38;2.60;;;22.10;99.90;;;21.10;83.37;100469.22;10304689;28;98409;-89
2023/09/02 07:54:33;;;;;;;4.93;2.40;;;22.40;99.90;;;21.45;82.09;100471.22;10322992;28;97031;-89
2023/09/02 07:59:37;;;;;;;4.25;2.50;;;22.70;99.90;;;21.77;80.03;100470.88;10304189;28;98736;-89
2023/09/02 08:04:40;;;;;;;5.35;2.67;;;23.00;99.40;;;21.95;78.24;100473.50;10304684;28;97413;-89
2023/09/02 08:09:48;;;;;;;3.20;2.42;;;23.20;98.80;;;22.17;77.98;100471.84;10299297;28;96737;-89
2023/09/02 08:14:52;;;;;;;5.88;2.85;;;23.40;98.60;;;22.40;77.04;100470.97;10299858;28;96708;-89
2023/09/02 08:19:55;;;;;;;3.40;2.83;;;23.70;98.20;;;22.63;75.50;100467.41;10286560;28;98724;-89
2023/09/02 08:24:59;;;;;;;3.70;2.45;;;23.90;97.70;;;22.85;75.12;100462.13;10307832;28;96739;-89
2023/09/02 08:30:04;;;;;;;5.95;3.13;;;24.10;97.60;;;23.09;72.70;100465.59;10303872;28;96650;-90
2023/09/02 08:35:08;;;;;;;5.03;2.63;;;24.30;96.70;;;23.30;71.56;100465.94;10319993;28;96601;-90
2023/09/02 08:40:12;;;;;;;4.95;2.47;;;24.50;96.20;;;23.54;70.72;100466.59;10295110;28;97593;-90
2023/09/02 08:45:18;;;;;;;3.45;2.47;;;24.80;95.80;;;23.79;69.04;100463.50;10300707;28;96682;-90
2023/09/02 08:50:23;;;;;;;3.67;2.30;;;25.00;95.30;;;23.98;67.16;100465.66;10294232;28;96686;-90
2023/09/02 08:55:31;;;;;;;3.42;2.05;;;25.20;94.40;;;24.24;66.96;100457.91;10289008;28;96822;-92
2023/09/02 09:00:36;;;;;;;5.47;2.58;;;25.50;94.10;;;24.57;65.93;100462.41;10297410;28;98596;-92
2023/09/02 09:05:42;;;;;;;3.65;2.50;;;25.80;93.60;;;24.92;65.06;100474.75;10321157;28;97350;-91
2023/09/02 09:10:47;;;;;;;4.30;2.90;;;26.10;93.10;;;25.17;62.29;100460.59;10327261;28;97257;-91
2023/09/02 09:15:54;;;;;;;2.85;2.40;;;26.40;92.20;;;25.46;61.84;100456.50;10319936;28;98385;-90
2023/09/02 09:20:58;;;;;;;3.80;2.40;;;26.70;91.70;;;25.72;61.04;100457.50;10297735;28;96897;-90
2023/09/02 09:26:06;;;;;;;5.85;2.45;;;26.90;91.30;;;25.86;59.56;100453.28;10297179;28;98375;-91
2023/09/02 09:31:17;;;;;;;;;;;27.20;90.70;;;26.03;57.26;100463.16;10313795;28;97052;-91
2023/09/02 09:36:22;;;;;;;;;;;27.30;89.60;;;25.84;57.50;100469.06;10297080;28;97093;-92
2023/09/02 09:41:27;;;;;;;9.40;2.15;;;27.20;89.50;;;25.75;58.32;100478.81;10294644;28;96758;-93
2023/09/02 09:46:51;;;;;;;3.85;2.00;;;27.00;89.40;;;25.70;58.62;100470.56;10305890;28;97671;-91
2023/09/02 09:52:02;;;;;;;2.78;2.17;;;26.90;89.60;;;25.71;58.92;100477.66;10294536;28;97509;-91
2023/09/02 09:57:08;;;;;;;2.90;1.20;;;26.90;89.20;;;25.72;56.61;100462.94;10301701;28;98951;-91
2023/09/02 10:02:19;;;;;;;1.88;0.90;;;26.90;87.80;;;25.76;55.03;100466.81;10286406;28;98637;-91
2023/09/02 10:07:30;;;;;;;1.73;1.00;;;26.90;85.50;;;25.70;53.85;100459.69;10291988;28;98548;-94
2023/09/02 10:12:35;;;;;;;2.78;1.33;;;26.90;83.60;;;25.75;53.12;100454.31;10295158;28;97274;-93
2023/09/02 10:17:44;;;;;;;1.77;0.95;;;26.80;82.80;;;25.94;53.43;100460.13;10310006;28;96876;-95
2023/09/02 10:22:51;;;;;;;2.05;1.25;;;27.00;82.60;;;26.30;52.48;100460.31;10288648;28;98474;-93
2023/09/02 10:28:10;;;;;;;4.38;1.50;;;27.30;82.00;;;26.61;51.47;100437.56;10305961;28;98750;-93
2023/09/02 10:33:25;;;;;;;1.27;0.97;;;27.70;80.80;;;27.13;48.96;100449.44;10288866;28;96825;-94
2023/09/02 10:38:33;;;;;;;1.60;0.93;;;28.10;79.10;;;27.42;48.77;100447.00;10320695;28;98250;-92
2023/09/02 10:43:39;;;;;;;1.85;1.10;;;28.30;78.10;;;27.50;47.52;100435.53;10291826;28;98165;-92
2023/09/02 10:48:44;;;;;;;3.08;1.25;;;28.60;76.20;;;27.65;48.04;100454.63;10308455;28;96863;-93
2023/09/02 10:53:50;;;;;;;2.63;1.13;;;28.60;77.00;;;27.81;47.96;100439.06;10313049;28;97084;-91
2023/09/02 10:58:54;;;;;;;1.83;1.00;;;28.80;76.40;;;27.91;47.45;100449.97;10331319;28;96840;-92
2023/09/02 11:03:58;;;;;;;1.13;0.85;;;29.00;75.10;;;27.96;46.88;100444.50;10308061;28;96946;-93
2023/09/02 11:09:02;;;;;;;1.52;1.13;;;29.00;74.20;;;28.10;46.08;100443.91;10286580;28;96812;-93
2023/09/02 11:14:06;;;;;;;2.95;1.10;;;29.10;73.10;;;28.30;46.12;100448.47;10325843;28;97508;-91
2023/09/02 11:19:12;;;;;;;1.83;1.00;;;29.40;72.80;;;28.36;45.92;100444.63;10302956;28;97170;-93
2023/09/02 11:24:25;;;;;;;2.00;1.10;;;29.50;72.80;;;28.29;45.51;100450.38;10285549;28;98635;-92
2023/09/02 11:29:30;;;;;;;1.85;1.23;;;29.40;71.90;;;28.04;46.81;100450.47;10303804;28;97602;-93
2023/09/02 11:34:34;;;;;;;2.50;1.52;;;29.10;72.90;;;27.89;47.39;100452.16;10285411;28;97333;-92
2023/09/02 11:39:38;;;;;;;3.78;3.00;;;28.90;73.70;;;28.11;48.72;100442.78;10278643;28;96610;-92
2023/09/02 11:44:51;;;;;;;2.42;1.20;;;29.00;74.80;;;28.32;45.67;100441.66;10312635;28;96671;-92
2023/09/02 11:49:55;;;;;;;1.40;1.10;;;29.40;72.80;;;28.59;45.39;100448.63;10296250;28;97175;-92
2023/09/02 11:55:11;;;;;;;2.33;0.90;;;29.60;71.90;;;28.99;44.50;100442.16;10283596;28;96741;-93
2023/09/02 12:00:21;;;;;;;3.08;1.08;;;30.10;71.10;;;29.28;44.44;100439.47;10290257;28;97860;-93
2023/09/02 12:05:24;;;;;;;1.30;0.90;;;30.40;70.00;;;29.56;43.92;100438.66;10301843;28;97235;-93
2023/09/02 12:10:31;;;;;;;3.15;2.28;;;30.60;69.40;;;29.85;43.03;100437.84;10279790;28;100496;-93
2023/09/02 12:15:35;;;;;;;2.60;1.60;;;31.00;68.80;;;29.90;43.05;100437.78;10290285;28;98560;-93
2023/09/02 12:20:39;;;;;;;3.78;1.30;;;31.00;68.30;;;29.76;41.88;100428.63;10306936;28;96673;-94
2023/09/02 12:26:03;;;;;;;1.50;1.08;;;30.80;67.10;;;29.63;42.52;100423.81;10317640;28;96734;-93
2023/09/02 12:31:07;;;;;;;1.42;0.90;;;30.70;67.40;;;29.86;42.79;100423.84;10347783;28;97443;-92
2023/09/02 12:36:11;;;;;;;1.60;0.95;;;30.90;68.10;;;29.93;42.21;100426.25;10332156;28;96645;-91
2023/09/02 12:41:14;;;;;;;1.77;1.10;;;31.00;67.00;;;29.59;41.52;100427.16;10347519;28;96662;-94
2023/09/02 12:46:21;;;;;;;1.80;1.10;;;30.70;66.30;;;29.14;42.78;100422.03;10318569;28;96581;-93
2023/09/02 12:51:28;;;;;;;1.35;0.88;;;30.20;66.80;;;28.96;42.80;100424.34;10319103;28;96675;-92
2023/09/02 12:56:32;;;;;;;1.17;0.93;;;29.90;67.10;;;29.05;43.46;100419.94;10316987;28;97423;-93
2023/09/02 13:01:39;;;;;;;2.60;1.30;;;30.00;67.60;;;29.22;44.03;100407.78;10299003;28;96923;-92
2023/09/02 13:06:43;;;;;;;1.50;1.10;;;30.10;68.00;;;29.20;42.87;100408.03;10316089;28;97091;-93
2023/09/02 13:11:47;;;;;;;1.55;1.00;;;30.20;67.20;;;29.21;43.38;100412.44;10315356;28;96687;-94
2023/09/02 13:16:51;;;;;;;3.40;1.15;;;30.10;67.60;;;29.13;43.82;100404.81;10291495;28;96607;-92
2023/09/02 13:21:55;;;;;;;2.70;1.42;;;30.10;67.80;;;29.15;43.70;100418.19;10299332;28;97434;-93
2023/09/02 13:27:00;;;;;;;1.48;1.02;;;30.10;68.10;;;29.08;43.33;100412.25;10298117;28;98508;-93
2023/09/02 13:32:11;;;;;;;1.83;0.90;;;30.10;67.40;;;29.12;43.44;100416.06;10290545;28;96628;-94
2023/09/02 13:37:25;;;;;;;1.20;0.90;;;30.10;66.90;;;29.19;43.53;100405.59;10284543;28;96605;-92
2023/09/02 13:42:31;;;;;;;1.38;0.80;;;30.10;67.60;;;29.20;42.72;100399.00;10303460;28;98550;-92
2023/09/02 13:47:35;;;;;;;1.88;0.90;;;30.10;66.40;;;29.38;42.11;100398.28;10314505;28;97788;-93
2023/09/02 13:52:42;;;;;;;1.70;0.80;;;30.30;66.10;;;29.55;39.78;100385.03;10296031;28;96882;-92
2023/09/02 13:57:46;;;;;;;3.47;0.93;;;30.50;63.60;;;29.68;38.54;100388.19;10303664;28;98187;-93
2023/09/02 14:02:49;;;;;;;1.52;0.88;;;30.70;61.70;;;29.51;37.32;100383.97;10284713;28;98641;-94
2023/09/02 14:08:00;;;;;;;4.25;0.80;;;30.50;60.40;;;29.39;37.82;100383.53;10279214;28;97556;-92
2023/09/02 14:13:09;;;;;;;1.80;0.85;;;30.40;60.30;;;29.44;37.88;100388.94;10289088;28;97384;-94
2023/09/02 14:18:13;;;;;;;1.15;0.75;;;30.40;60.00;;;29.45;36.17;100379.63;10295120;28;97510;-93
2023/09/02 14:23:17;;;;;;;1.88;0.70;;;30.50;58.60;;;29.51;36.30;100392.16;10299194;28;96967;-94
2023/09/02 14:28:21;;;;;;;1.33;0.73;;;30.40;58.40;;;29.49;36.77;100377.94;10283070;28;98577;-93
2023/09/02 14:33:25;;;;;;;0.70;0.57;;;30.50;58.60;;;29.69;35.96;100396.13;10282515;28;97874;-94
2023/09/02 14:38:28;;;;;;;1.02;0.63;;;30.70;58.00;;;29.99;35.21;100389.47;10289357;28;96680;-96
2023/09/02 14:43:32;;;;;;;2.60;0.80;;;31.20;57.00;;;30.59;35.80;100380.78;10295114;28;96647;-96
2023/09/02 14:48:36;;;;;;;1.38;0.70;;;32.10;57.00;;;31.13;35.13;100388.44;10291282;28;96668;-94
2023/09/02 14:53:39;;;;;;;1.48;0.93;;;32.70;56.70;;;31.40;35.13;100384.97;10306196;28;96733;-94
2023/09/02 14:58:43;;;;;;;2.78;1.10;;;32.80;56.30;;;31.66;34.68;100379.81;10285836;28;97074;-93
2023/09/02 15:03:48;;;;;;;1.75;0.70;;;33.10;55.90;;;32.08;34.41;100382.59;10279842;28;99301;-94
2023/09/02 15:08:53;;;;;;;1.98;0.95;;;33.50;55.80;;;32.50;33.03;100381.41;10285646;28;97617;-94
2023/09/02 15:13:59;;;;;;;2.13;0.60;;;34.00;54.20;;;33.03;31.38;100369.72;10297278;28;98321;-92
2023/09/02 15:19:03;;;;;;;1.27;0.70;;;34.40;53.10;;;33.45;30.42;100376.63;10310666;28;96812;-95
2023/09/02 15:24:10;;;;;;;1.38;0.80;;;34.80;52.40;;;33.67;29.78;100385.97;10312422;28;96588;-93
2023/09/02 15:29:23;;;;;;;0.80;0.65;;;35.00;51.60;;;33.67;29.89;100395.06;10285010;28;96912;-94
2023/09/02 15:34:28;;;;;;;1.38;0.77;;;35.00;50.90;;;33.44;29.92;100396.25;10285547;28;97948;-94
2023/09/02 15:39:32;;;;;;;1.13;0.70;;;34.70;51.10;;;32.72;30.21;100394.41;10321157;28;97039;-94
2023/09/02 15:44:36;;;;;;;1.98;0.80;;;33.80;51.30;;;32.02;31.67;100394.81;10295614;28;96630;-93
2023/09/02 15:49:40;;;;;;;0.77;0.60;;;33.00;52.30;;;31.86;32.17;100400.63;10325123;28;97688;-93
2023/09/02 15:54:43;;;;;;;2.60;0.80;;;32.80;53.10;;;31.53;32.09;100418.25;10315860;28;97868;-93
2023/09/02 15:59:47;;;;;;;2.67;1.05;;;32.50;52.80;;;30.98;33.60;100416.13;10295774;28;98170;-92
2023/09/02 16:04:51;;;;;;;1.85;0.90;;;31.90;53.60;;;30.36;34.25;100423.59;10307073;28;98716;-92
2023/09/02 16:09:54;;;;;;;2.47;0.90;;;31.20;54.30;;;29.71;35.58;100428.69;10302065;28;96731;-93
2023/09/02 16:14:58;;;;;;;1.73;0.90;;;30.60;55.30;;;29.18;36.67;100428.59;10320090;28;96465;-92
2023/09/02 16:20:02;;;;;;;1.73;0.93;;;30.00;56.30;;;28.73;37.70;100439.53;10270074;28;96717;-92
2023/09/02 16:25:06;;;;;;;1.20;0.70;;;29.60;57.20;;;28.35;38.71;100435.63;10292746;28;97587;-91
2023/09/02 16:30:10;;;;;;;2.08;1.13;;;29.20;57.90;;;27.98;39.82;100439.56;10264173;28;98303;-92
2023/09/02 16:35:24;;;;;;;1.10;0.70;;;28.80;58.70;;;27.58;40.01;100442.31;10287083;28;96734;-91
2023/09/02 16:40:31;;;;;;;2.25;0.80;;;28.50;59.50;;;27.28;41.44;100443.97;10295609;28;98170;-91
2023/09/02 16:45:34;;;;;;;1.50;0.82;;;28.10;60.30;;;27.01;42.38;100446.94;10336725;28;97132;-92
2023/09/02 16:50:42;;;;;;;1.85;0.70;;;27.90;61.10;;;26.70;42.81;100459.69;10317023;28;96718;-92
2023/09/02 16:55:57;;;;;;;1.77;1.00;;;27.60;61.70;;;26.39;43.80;100459.56;10319547;28;97741;-92
2023/09/02 17:01:12;;;;;;;2.53;1.00;;;27.30;62.40;;;26.07;44.42;100447.94;10301622;28;96571;-92
2023/09/02 17:06:28;;;;;;;1.25;0.73;;;27.00;63.00;;;25.77;44.80;100462.19;10319166;28;96674;-92
2023/09/02 17:11:33;;;;;;;2.08;0.82;;;26.70;63.70;;;25.48;46.18;100464.41;10317298;28;97309;-93
2023/09/02 17:16:48;;;;;;;1.27;0.77;;;26.40;64.80;;;25.16;47.28;100465.22;10303330;28;96790;-92
2023/09/02 17:21:58;;;;;;;1.92;0.70;;;26.20;65.60;;;24.86;48.02;100459.44;10292902;28;98984;-92
2023/09/02 17:27:03;;;;;;;2.88;0.80;;;25.80;66.10;;;24.64;48.28;100464.91;10307532;28;98403;-93
2023/09/02 17:32:23;;;;;;;5.03;0.90;;;25.60;66.60;;;24.39;48.75;100476.28;10290562;28;97638;-92
2023/09/02 17:37:27;;;;;;;1.35;0.93;;;25.40;67.20;;;24.15;49.52;100476.50;10328484;28;96555;-92
2023/09/02 17:42:31;;;;;;;2.00;0.70;;;25.10;68.00;;;23.89;50.76;100479.94;10302127;28;96452;-92
2023/09/02 17:47:38;;;;;;;3.53;0.80;;;25.00;68.70;;;23.70;51.32;100480.19;10302599;28;96818;-93
2023/09/02 17:52:42;;;;;;;3.28;0.90;;;24.70;69.50;;;23.51;52.20;100492.34;10315642;28;96710;-92
2023/09/02 17:57:46;;;;;;;2.80;0.98;;;24.50;70.30;;;23.35;53.18;100493.97;10301202;28;96683;-91
2023/09/02 18:02:50;;;;;;;2.22;1.00;;;24.30;71.00;;;23.24;53.69;100509.22;10312354;28;96618;-92
2023/09/02 18:07:54;;;;;;;1.98;1.00;;;24.10;71.60;;;23.08;54.41;100503.75;10307639;28;96622;-93
2023/09/02 18:12:57;;;;;;;2.33;0.90;;;24.00;72.20;;;22.98;55.00;100501.69;10317443;28;96460;-92
2023/09/02 18:18:02;;;;;;;1.80;0.98;;;23.90;72.60;;;22.94;55.41;100514.06;10288818;28;98883;-92
2023/09/02 18:23:07;;;;;;;4.13;1.30;;;23.80;72.90;;;22.86;55.78;100515.25;10323235;28;96989;-91
2023/09/02 18:28:11;;;;;;;2.20;1.10;;;23.80;73.40;;;22.84;56.40;100521.97;10292790;28;97140;-92
2023/09/02 18:33:15;;;;;;;1.35;0.82;;;23.70;73.90;;;22.68;56.70;100526.28;10287900;28;97335;-92
2023/09/02 18:38:19;;;;;;;1.45;1.13;;;23.60;74.50;;;22.59;57.30;100528.50;10280126;28;96932;-91
2023/09/02 18:43:23;;;;;;;1.65;1.17;;;23.50;74.70;;;22.58;57.16;100531.47;10296010;28;97150;-92
2023/09/02 18:48:27;;;;;;;1.45;0.90;;;23.50;74.90;;;22.47;57.31;100513.34;10309339;28;96697;-93
2023/09/02 18:53:30;;;;;;;1.33;0.80;;;23.50;74.90;;;22.53;57.50;100544.91;10308457;28;96553;-92
2023/09/02 18:58:34;;;;;;;1.60;0.80;;;23.50;75.00;;;22.49;57.30;100533.72;10333105;28;97322;-92
2023/09/02 19:03:39;;;;;;;1.77;1.10;;;23.40;75.30;;;22.45;57.42;100543.38;10306463;28;98392;-91
2023/09/02 19:08:43;;;;;;;1.50;0.82;;;23.40;75.30;;;22.38;58.41;100542.69;10307748;28;96769;-91
2023/09/02 19:13:47;;;;;;;2.28;1.20;;;23.40;75.80;;;22.24;59.05;100560.22;10295805;28;98370;-92
2023/09/02 19:18:53;;;;;;;2.67;1.50;;;23.40;76.50;;;22.12;59.82;100558.34;10281884;28;97991;-92
2023/09/02 19:24:00;;;;;;;1.63;1.20;;;23.20;77.10;;;21.94;60.95;100569.22;10311135;28;97137;-92
2023/09/02 19:29:04;;;;;;;2.08;1.25;;;23.10;78.20;;;21.77;62.31;100573.69;10321230;28;96598;-92
2023/09/02 19:34:08;;;;;;;1.98;1.58;;;22.90;78.90;;;21.58;63.01;100554.00;10298629;28;97432;-91
2023/09/02 19:39:17;;;;;;;2.10;1.27;;;22.80;79.40;;;21.52;64.03;100573.84;10303148;28;96955;-92
2023/09/02 19:44:21;;;;;;;2.17;1.33;;;22.70;79.90;;;21.40;64.42;100581.94;10298932;28;97439;-90
2023/09/02 19:49:24;;;;;;;3.60;1.60;;;22.50;80.60;;;21.25;64.75;100570.69;10290393;28;97128;-91
2023/09/02 19:54:28;;;;;;;2.83;1.42;;;22.30;81.20;;;21.14;66.24;100574.16;10286245;28;97835;-90
2023/09/02 19:59:32;;;;;;;2.97;1.38;;;22.20;82.10;;;21.01;66.83;100585.97;10317593;28;96599;-89
2023/09/02 20:04:36;;;;;;;2.25;1.20;;;22.00;82.80;;;20.86;67.80;100578.22;10337962;28;97096;-88
2023/09/02 20:09:43;;;;;;;1.92;1.30;;;21.90;83.50;;;20.75;68.66;100582.53;10346913;28;96936;-88
2023/09/02 20:14:47;;;;;;;2.00;1.38;;;21.70;84.00;;;20.68;68.72;100586.34;10309748;28;96483;-90
2023/09/02 20:19:50;;;;;;;2.70;1.50;;;21.60;84.40;;;20.61;68.91;100570.22;10305120;28;97110;-91
2023/09/02 20:24:54;;;;;;;2.20;1.30;;;21.60;84.70;;;20.57;69.48;100567.16;10297451;28;96768;-91
2023/09/02 20:29:58;;;;;;;2.03;1.30;;;21.60;85.10;;;20.48;69.60;100562.28;10309588;28;99095;-91
2023/09/02 20:35:02;;;;;;;3.83;1.27;;;21.50;85.50;;;20.42;69.49;100566.66;10303733;28;96848;-91
2023/09/02 20:40:07;;;;;;;1.85;1.23;;;21.40;85.90;;;20.37;70.24;100574.59;10294340;28;98777;-91
2023/09/02 20:45:11;;;;;;;2.63;1.50;;;21.40;86.30;;;20.28;70.69;100575.94;10328624;28;98507;-91
2023/09/02 20:50:14;;;;;;;3.95;1.45;;;21.30;86.80;;;20.19;70.88;100574.56;10304505;28;96641;-90
2023/09/02 20:55:18;;;;;;;2.28;1.60;;;21.20;87.20;;;20.07;71.70;100569.06;10286833;28;96851;-91